sensor_id;sensor_type;location;lat;lon;timestamp;P1;durP1;ratioP1;P2;durP2;ratioP2
12145;SDS011;6136;47.032;15.398;2022-09-04T00:02:00;3.50;;;3.20;;
12145;SDS011;6136;47.032;15.398;2022-09-04T00:04:38;4.60;;;4.20;;
12145;SDS011;6136;47.032;15.398;2022-09-04T00:07:14;4.57;;;3.73;;
12145;SDS011;6136;47.032;15.398;2022-09-04T00:09:52;4.17;;;3.87;;
12145;SDS011;6136;47.032;15.398;2022-09-04T00:12:33;4.37;;;3.97;;
12145;SDS011;6136;47.032;15.398;2022-09-04T00:15:10;4.67;;;3.70;;
12145;SDS011;6136;47.032;15.398;2022-09-04T00:17:43;4.47;;;4.07;;
12145;SDS011;6136;47.032;15.398;2022-09-04T00:20:23;5.67;;;3.87;;
12145;SDS011;6136;47.032;15.398;2022-09-04T00:22:58;4.40;;;4.07;;
12145;SDS011;6136;47.032;15.398;2022-09-04T00:25:32;4.63;;;4.23;;
12145;SDS011;6136;47.032;15.398;2022-09-04T00:28:07;7.63;;;4.13;;
12145;SDS011;6136;47.032;15.398;2022-09-04T00:30:42;4.43;;;4.03;;
12145;SDS011;6136;47.032;15.398;2022-09-04T00:33:18;5.80;;;4.30;;
12145;SDS011;6136;47.032;15.398;2022-09-04T00:35:52;5.10;;;4.33;;
12145;SDS011;6136;47.032;15.398;2022-09-04T00:38:31;4.53;;;4.13;;
12145;SDS011;6136;47.032;15.398;2022-09-04T00:41:07;5.13;;;4.20;;
12145;SDS011;6136;47.032;15.398;2022-09-04T00:43:48;4.20;;;3.80;;
12145;SDS011;6136;47.032;15.398;2022-09-04T00:46:51;5.20;;;4.50;;
12145;SDS011;6136;47.032;15.398;2022-09-04T00:49:38;5.27;;;4.77;;
12145;SDS011;6136;47.032;15.398;2022-09-04T00:52:23;7.40;;;4.93;;
12145;SDS011;6136;47.032;15.398;2022-09-04T00:55:07;5.83;;;4.40;;
12145;SDS011;6136;47.032;15.398;2022-09-04T01:00:44;4.67;;;4.27;;
12145;SDS011;6136;47.032;15.398;2022-09-04T01:06:29;4.60;;;4.20;;
12145;SDS011;6136;47.032;15.398;2022-09-04T01:09:07;4.23;;;3.83;;
12145;SDS011;6136;47.032;15.398;2022-09-04T01:11:52;4.03;;;3.67;;
12145;SDS011;6136;47.032;15.398;2022-09-04T01:14:34;3.10;;;2.90;;
12145;SDS011;6136;47.032;15.398;2022-09-04T01:17:09;3.77;;;3.40;;
12145;SDS011;6136;47.032;15.398;2022-09-04T01:19:47;5.00;;;3.50;;
12145;SDS011;6136;47.032;15.398;2022-09-04T01:22:36;4.13;;;3.73;;
12145;SDS011;6136;47.032;15.398;2022-09-04T01:25:29;3.77;;;3.43;;
12145;SDS011;6136;47.032;15.398;2022-09-04T01:28:06;4.20;;;3.80;;
12145;SDS011;6136;47.032;15.398;2022-09-04T01:30:42;4.13;;;3.77;;
12145;SDS011;6136;47.032;15.398;2022-09-04T01:33:16;4.90;;;4.13;;
12145;SDS011;6136;47.032;15.398;2022-09-04T01:35:51;4.80;;;3.83;;
12145;SDS011;6136;47.032;15.398;2022-09-04T01:38:27;4.30;;;3.90;;
12145;SDS011;6136;47.032;15.398;2022-09-04T01:41:02;4.37;;;3.80;;
12145;SDS011;6136;47.032;15.398;2022-09-04T01:43:41;4.20;;;3.70;;
12145;SDS011;6136;47.032;15.398;2022-09-04T01:46:19;4.03;;;3.63;;
12145;SDS011;6136;47.032;15.398;2022-09-04T01:49:05;4.23;;;3.83;;
12145;SDS011;6136;47.032;15.398;2022-09-04T01:51:41;3.90;;;3.57;;
12145;SDS011;6136;47.032;15.398;2022-09-04T01:54:19;4.20;;;3.60;;
12145;SDS011;6136;47.032;15.398;2022-09-04T01:56:58;4.13;;;3.70;;
12145;SDS011;6136;47.032;15.398;2022-09-04T01:59:41;3.77;;;3.47;;
12145;SDS011;6136;47.032;15.398;2022-09-04T02:02:21;3.83;;;3.43;;
12145;SDS011;6136;47.032;15.398;2022-09-04T02:04:58;4.70;;;3.70;;
12145;SDS011;6136;47.032;15.398;2022-09-04T02:07:35;4.03;;;3.70;;
12145;SDS011;6136;47.032;15.398;2022-09-04T02:10:10;4.00;;;3.47;;
12145;SDS011;6136;47.032;15.398;2022-09-04T02:12:50;3.40;;;3.10;;
12145;SDS011;6136;47.032;15.398;2022-09-04T02:15:35;3.37;;;3.07;;
12145;SDS011;6136;47.032;15.398;2022-09-04T02:18:12;7.00;;;3.40;;
12145;SDS011;6136;47.032;15.398;2022-09-04T02:20:51;3.33;;;3.03;;
12145;SDS011;6136;47.032;15.398;2022-09-04T02:23:28;3.53;;;3.23;;
12145;SDS011;6136;47.032;15.398;2022-09-04T02:26:02;3.00;;;2.80;;
12145;SDS011;6136;47.032;15.398;2022-09-04T02:28:42;3.57;;;3.27;;
12145;SDS011;6136;47.032;15.398;2022-09-04T02:31:20;3.10;;;2.80;;
12145;SDS011;6136;47.032;15.398;2022-09-04T02:33:58;3.17;;;2.87;;
12145;SDS011;6136;47.032;15.398;2022-09-04T02:36:33;4.67;;;2.50;;
12145;SDS011;6136;47.032;15.398;2022-09-04T02:39:12;3.93;;;3.00;;
12145;SDS011;6136;47.032;15.398;2022-09-04T02:41:56;3.20;;;3.00;;
12145;SDS011;6136;47.032;15.398;2022-09-04T02:44:36;2.80;;;2.57;;
12145;SDS011;6136;47.032;15.398;2022-09-04T02:47:16;3.80;;;2.60;;
12145;SDS011;6136;47.032;15.398;2022-09-04T02:49:53;3.00;;;2.70;;
12145;SDS011;6136;47.032;15.398;2022-09-04T02:52:29;3.00;;;2.73;;
12145;SDS011;6136;47.032;15.398;2022-09-04T02:55:10;3.37;;;3.07;;
12145;SDS011;6136;47.032;15.398;2022-09-04T02:57:52;2.90;;;2.70;;
12145;SDS011;6136;47.032;15.398;2022-09-04T03:00:31;5.23;;;3.00;;
12145;SDS011;6136;47.032;15.398;2022-09-04T03:03:10;2.97;;;2.77;;
12145;SDS011;6136;47.032;15.398;2022-09-04T03:05:44;2.90;;;2.60;;
12145;SDS011;6136;47.032;15.398;2022-09-04T03:08:18;3.77;;;2.70;;
12145;SDS011;6136;47.032;15.398;2022-09-04T03:10:51;2.87;;;2.67;;
12145;SDS011;6136;47.032;15.398;2022-09-04T03:13:25;3.57;;;3.17;;
12145;SDS011;6136;47.032;15.398;2022-09-04T03:15:59;3.87;;;3.10;;
12145;SDS011;6136;47.032;15.398;2022-09-04T03:18:50;4.23;;;3.13;;
12145;SDS011;6136;47.032;15.398;2022-09-04T03:21:31;3.37;;;3.07;;
12145;SDS011;6136;47.032;15.398;2022-09-04T03:24:08;4.90;;;2.90;;
12145;SDS011;6136;47.032;15.398;2022-09-04T03:26:43;3.20;;;2.90;;
12145;SDS011;6136;47.032;15.398;2022-09-04T03:29:18;4.60;;;3.37;;
12145;SDS011;6136;47.032;15.398;2022-09-04T03:31:57;4.27;;;3.50;;
12145;SDS011;6136;47.032;15.398;2022-09-04T03:34:45;3.80;;;3.10;;
12145;SDS011;6136;47.032;15.398;2022-09-04T03:37:27;4.13;;;3.30;;
12145;SDS011;6136;47.032;15.398;2022-09-04T03:45:53;4.47;;;3.40;;
12145;SDS011;6136;47.032;15.398;2022-09-04T03:48:34;4.07;;;3.70;;
12145;SDS011;6136;47.032;15.398;2022-09-04T03:51:16;3.43;;;3.13;;
12145;SDS011;6136;47.032;15.398;2022-09-04T03:53:54;4.07;;;3.40;;
12145;SDS011;6136;47.032;15.398;2022-09-04T03:56:40;4.17;;;3.77;;
12145;SDS011;6136;47.032;15.398;2022-09-04T03:59:30;4.00;;;3.63;;
12145;SDS011;6136;47.032;15.398;2022-09-04T04:02:10;6.73;;;4.10;;
12145;SDS011;6136;47.032;15.398;2022-09-04T04:04:49;4.60;;;3.93;;
12145;SDS011;6136;47.032;15.398;2022-09-04T04:07:30;3.77;;;3.47;;
12145;SDS011;6136;47.032;15.398;2022-09-04T04:10:12;5.37;;;3.80;;
12145;SDS011;6136;47.032;15.398;2022-09-04T04:13:07;4.33;;;3.93;;
12145;SDS011;6136;47.032;15.398;2022-09-04T04:15:54;4.60;;;4.20;;
12145;SDS011;6136;47.032;15.398;2022-09-04T04:18:37;5.10;;;4.13;;
12145;SDS011;6136;47.032;15.398;2022-09-04T04:21:21;3.90;;;3.60;;
12145;SDS011;6136;47.032;15.398;2022-09-04T04:24:07;4.60;;;4.20;;
12145;SDS011;6136;47.032;15.398;2022-09-04T04:26:50;6.37;;;4.00;;
12145;SDS011;6136;47.032;15.398;2022-09-04T04:32:33;4.43;;;4.00;;
12145;SDS011;6136;47.032;15.398;2022-09-04T04:35:16;5.40;;;4.07;;
12145;SDS011;6136;47.032;15.398;2022-09-04T04:38:00;4.40;;;4.00;;
12145;SDS011;6136;47.032;15.398;2022-09-04T04:40:46;4.37;;;3.97;;
12145;SDS011;6136;47.032;15.398;2022-09-04T04:43:30;4.23;;;3.73;;
12145;SDS011;6136;47.032;15.398;2022-09-04T04:46:06;4.37;;;3.97;;
12145;SDS011;6136;47.032;15.398;2022-09-04T04:48:58;4.33;;;3.93;;
12145;SDS011;6136;47.032;15.398;2022-09-04T04:52:07;4.57;;;3.93;;
12145;SDS011;6136;47.032;15.398;2022-09-04T04:54:55;4.77;;;4.33;;
12145;SDS011;6136;47.032;15.398;2022-09-04T04:57:39;4.20;;;3.80;;
12145;SDS011;6136;47.032;15.398;2022-09-04T05:00:16;4.50;;;3.90;;
12145;SDS011;6136;47.032;15.398;2022-09-04T05:02:57;5.27;;;4.17;;
12145;SDS011;6136;47.032;15.398;2022-09-04T05:08:33;5.03;;;4.53;;
12145;SDS011;6136;47.032;15.398;2022-09-04T05:11:12;4.83;;;3.97;;
12145;SDS011;6136;47.032;15.398;2022-09-04T05:13:53;4.33;;;3.93;;
12145;SDS011;6136;47.032;15.398;2022-09-04T05:16:37;4.33;;;3.93;;
12145;SDS011;6136;47.032;15.398;2022-09-04T05:19:20;4.07;;;3.67;;
12145;SDS011;6136;47.032;15.398;2022-09-04T05:21:57;4.50;;;4.10;;
12145;SDS011;6136;47.032;15.398;2022-09-04T05:24:34;4.17;;;3.83;;
12145;SDS011;6136;47.032;15.398;2022-09-04T05:27:07;4.43;;;4.03;;
12145;SDS011;6136;47.032;15.398;2022-09-04T05:29:44;6.00;;;4.30;;
12145;SDS011;6136;47.032;15.398;2022-09-04T05:32:20;5.17;;;4.67;;
12145;SDS011;6136;47.032;15.398;2022-09-04T05:34:56;6.50;;;4.40;;
12145;SDS011;6136;47.032;15.398;2022-09-04T05:37:31;4.80;;;4.40;;
12145;SDS011;6136;47.032;15.398;2022-09-04T05:40:05;4.40;;;4.00;;
12145;SDS011;6136;47.032;15.398;2022-09-04T05:42:45;4.53;;;4.13;;
12145;SDS011;6136;47.032;15.398;2022-09-04T05:45:32;6.00;;;3.47;;
12145;SDS011;6136;47.032;15.398;2022-09-04T05:48:15;3.77;;;3.30;;
12145;SDS011;6136;47.032;15.398;2022-09-04T05:50:53;3.90;;;3.50;;
12145;SDS011;6136;47.032;15.398;2022-09-04T05:53:51;4.97;;;3.90;;
12145;SDS011;6136;47.032;15.398;2022-09-04T05:56:40;4.33;;;3.53;;
12145;SDS011;6136;47.032;15.398;2022-09-04T05:59:27;3.40;;;3.10;;
12145;SDS011;6136;47.032;15.398;2022-09-04T06:05:12;4.03;;;3.50;;
12145;SDS011;6136;47.032;15.398;2022-09-04T06:07:51;3.70;;;3.10;;
12145;SDS011;6136;47.032;15.398;2022-09-04T06:10:25;4.87;;;3.07;;
12145;SDS011;6136;47.032;15.398;2022-09-04T06:13:13;6.37;;;3.00;;
12145;SDS011;6136;47.032;15.398;2022-09-04T06:15:57;3.13;;;2.90;;
12145;SDS011;6136;47.032;15.398;2022-09-04T06:24:37;5.23;;;2.57;;
12145;SDS011;6136;47.032;15.398;2022-09-04T06:27:22;2.92;;;2.63;;
12145;SDS011;6136;47.032;15.398;2022-09-04T06:30:04;2.50;;;2.30;;
12145;SDS011;6136;47.032;15.398;2022-09-04T06:32:43;2.80;;;2.45;;
12145;SDS011;6136;47.032;15.398;2022-09-04T06:35:45;2.47;;;2.28;;
12145;SDS011;6136;47.032;15.398;2022-09-04T06:38:32;2.60;;;2.40;;
12145;SDS011;6136;47.032;15.398;2022-09-04T06:41:24;3.72;;;2.58;;
12145;SDS011;6136;47.032;15.398;2022-09-04T06:44:14;2.97;;;2.70;;
12145;SDS011;6136;47.032;15.398;2022-09-04T06:46:53;2.80;;;2.20;;
12145;SDS011;6136;47.032;15.398;2022-09-04T06:49:30;2.47;;;2.28;;
12145;SDS011;6136;47.032;15.398;2022-09-04T06:52:10;3.42;;;2.33;;
12145;SDS011;6136;47.032;15.398;2022-09-04T06:54:48;2.88;;;2.63;;
12145;SDS011;6136;47.032;15.398;2022-09-04T06:57:35;2.47;;;2.20;;
12145;SDS011;6136;47.032;15.398;2022-09-04T07:00:13;2.88;;;2.38;;
12145;SDS011;6136;47.032;15.398;2022-09-04T07:05:37;2.30;;;2.10;;
12145;SDS011;6136;47.032;15.398;2022-09-04T07:08:15;2.15;;;2.03;;
12145;SDS011;6136;47.032;15.398;2022-09-04T07:11:02;1.80;;;1.70;;
12145;SDS011;6136;47.032;15.398;2022-09-04T07:13:48;1.92;;;1.83;;
12145;SDS011;6136;47.032;15.398;2022-09-04T07:16:28;2.22;;;2.03;;
12145;SDS011;6136;47.032;15.398;2022-09-04T07:22:20;1.73;;;1.63;;
12145;SDS011;6136;47.032;15.398;2022-09-04T07:25:06;2.17;;;1.98;;
12145;SDS011;6136;47.032;15.398;2022-09-04T07:27:43;1.65;;;1.55;;
12145;SDS011;6136;47.032;15.398;2022-09-04T07:30:22;2.13;;;1.95;;
12145;SDS011;6136;47.032;15.398;2022-09-04T07:32:53;4.20;;;1.83;;
12145;SDS011;6136;47.032;15.398;2022-09-04T07:35:26;3.90;;;1.95;;
12145;SDS011;6136;47.032;15.398;2022-09-04T07:38:02;2.00;;;1.90;;
12145;SDS011;6136;47.032;15.398;2022-09-04T07:40:38;4.00;;;2.13;;
12145;SDS011;6136;47.032;15.398;2022-09-04T07:43:22;1.77;;;1.67;;
12145;SDS011;6136;47.032;15.398;2022-09-04T07:46:00;1.95;;;1.85;;
12145;SDS011;6136;47.032;15.398;2022-09-04T07:48:34;1.90;;;1.80;;
12145;SDS011;6136;47.032;15.398;2022-09-04T07:51:09;1.70;;;1.60;;
12145;SDS011;6136;47.032;15.398;2022-09-04T07:53:44;1.80;;;1.70;;
12145;SDS011;6136;47.032;15.398;2022-09-04T07:56:27;1.80;;;1.48;;
12145;SDS011;6136;47.032;15.398;2022-09-04T07:59:19;1.88;;;1.77;;
12145;SDS011;6136;47.032;15.398;2022-09-04T08:04:59;1.70;;;1.60;;
12145;SDS011;6136;47.032;15.398;2022-09-04T08:07:47;1.60;;;1.50;;
12145;SDS011;6136;47.032;15.398;2022-09-04T08:10:27;2.13;;;1.92;;
12145;SDS011;6136;47.032;15.398;2022-09-04T08:13:09;1.58;;;1.48;;
12145;SDS011;6136;47.032;15.398;2022-09-04T08:15:46;1.80;;;1.70;;
12145;SDS011;6136;47.032;15.398;2022-09-04T08:21:25;1.70;;;1.60;;
12145;SDS011;6136;47.032;15.398;2022-09-04T08:24:11;2.00;;;1.90;;
12145;SDS011;6136;47.032;15.398;2022-09-04T08:27:01;1.90;;;1.80;;
12145;SDS011;6136;47.032;15.398;2022-09-04T08:29:45;2.00;;;1.80;;
12145;SDS011;6136;47.032;15.398;2022-09-04T08:32:28;2.00;;;1.60;;
12145;SDS011;6136;47.032;15.398;2022-09-04T08:35:19;3.97;;;1.85;;
12145;SDS011;6136;47.032;15.398;2022-09-04T08:37:58;1.83;;;1.73;;
12145;SDS011;6136;47.032;15.398;2022-09-04T08:40:50;1.80;;;1.70;;
12145;SDS011;6136;47.032;15.398;2022-09-04T08:44:02;1.90;;;1.80;;
12145;SDS011;6136;47.032;15.398;2022-09-04T08:49:53;1.95;;;1.85;;
12145;SDS011;6136;47.032;15.398;2022-09-04T08:52:42;2.25;;;2.15;;
12145;SDS011;6136;47.032;15.398;2022-09-04T08:55:41;2.10;;;2.00;;
12145;SDS011;6136;47.032;15.398;2022-09-04T09:01:46;2.13;;;1.83;;
12145;SDS011;6136;47.032;15.398;2022-09-04T09:04:41;3.95;;;2.28;;
12145;SDS011;6136;47.032;15.398;2022-09-04T09:17:10;2.35;;;2.25;;
12145;SDS011;6136;47.032;15.398;2022-09-04T09:19:44;2.60;;;2.40;;
12145;SDS011;6136;47.032;15.398;2022-09-04T09:25:17;2.20;;;2.10;;
12145;SDS011;6136;47.032;15.398;2022-09-04T09:40:22;2.25;;;2.05;;
12145;SDS011;6136;47.032;15.398;2022-09-04T09:46:10;2.45;;;2.28;;
12145;SDS011;6136;47.032;15.398;2022-09-04T09:48:58;2.08;;;1.98;;
12145;SDS011;6136;47.032;15.398;2022-09-04T09:55:33;2.03;;;1.92;;
12145;SDS011;6136;47.032;15.398;2022-09-04T09:58:30;4.25;;;2.17;;
12145;SDS011;6136;47.032;15.398;2022-09-04T10:01:23;2.42;;;2.33;;
12145;SDS011;6136;47.032;15.398;2022-09-04T10:07:15;2.60;;;2.40;;
12145;SDS011;6136;47.032;15.398;2022-09-04T10:10:16;2.22;;;2.13;;
12145;SDS011;6136;47.032;15.398;2022-09-04T10:13:26;2.70;;;2.08;;
12145;SDS011;6136;47.032;15.398;2022-09-04T10:19:34;2.13;;;2.03;;
12145;SDS011;6136;47.032;15.398;2022-09-04T10:22:33;2.08;;;1.98;;
12145;SDS011;6136;47.032;15.398;2022-09-04T10:31:19;1.98;;;1.88;;
12145;SDS011;6136;47.032;15.398;2022-09-04T10:34:03;2.28;;;2.17;;
12145;SDS011;6136;47.032;15.398;2022-09-04T10:36:52;2.60;;;2.40;;
12145;SDS011;6136;47.032;15.398;2022-09-04T10:39:33;2.40;;;2.30;;
12145;SDS011;6136;47.032;15.398;2022-09-04T10:42:32;2.30;;;2.20;;
12145;SDS011;6136;47.032;15.398;2022-09-04T10:45:15;2.38;;;2.28;;
12145;SDS011;6136;47.032;15.398;2022-09-04T10:47:50;2.10;;;2.00;;
12145;SDS011;6136;47.032;15.398;2022-09-04T10:50:39;2.20;;;2.10;;
12145;SDS011;6136;47.032;15.398;2022-09-04T10:53:31;3.10;;;2.10;;
12145;SDS011;6136;47.032;15.398;2022-09-04T10:56:21;2.17;;;2.08;;
12145;SDS011;6136;47.032;15.398;2022-09-04T11:02:00;1.98;;;1.88;;
12145;SDS011;6136;47.032;15.398;2022-09-04T11:07:59;2.22;;;2.13;;
12145;SDS011;6136;47.032;15.398;2022-09-04T11:10:44;2.38;;;2.28;;
12145;SDS011;6136;47.032;15.398;2022-09-04T11:13:44;2.10;;;2.00;;
12145;SDS011;6136;47.032;15.398;2022-09-04T11:16:40;2.53;;;2.42;;
12145;SDS011;6136;47.032;15.398;2022-09-04T11:26:01;2.40;;;2.30;;
12145;SDS011;6136;47.032;15.398;2022-09-04T11:28:51;2.15;;;2.05;;
12145;SDS011;6136;47.032;15.398;2022-09-04T11:34:49;2.35;;;2.25;;
12145;SDS011;6136;47.032;15.398;2022-09-04T11:37:53;2.20;;;2.10;;
12145;SDS011;6136;47.032;15.398;2022-09-04T11:49:54;2.60;;;2.40;;
12145;SDS011;6136;47.032;15.398;2022-09-04T11:52:36;2.35;;;2.25;;
12145;SDS011;6136;47.032;15.398;2022-09-04T11:55:20;2.22;;;2.13;;
12145;SDS011;6136;47.032;15.398;2022-09-04T11:58:12;2.30;;;1.90;;
12145;SDS011;6136;47.032;15.398;2022-09-04T12:00:59;1.90;;;1.80;;
12145;SDS011;6136;47.032;15.398;2022-09-04T12:03:56;2.08;;;1.98;;
12145;SDS011;6136;47.032;15.398;2022-09-04T12:06:38;2.13;;;2.00;;
12145;SDS011;6136;47.032;15.398;2022-09-04T12:09:32;2.10;;;2.00;;
12145;SDS011;6136;47.032;15.398;2022-09-04T12:12:21;2.00;;;1.73;;
12145;SDS011;6136;47.032;15.398;2022-09-04T12:18:11;2.00;;;1.90;;
12145;SDS011;6136;47.032;15.398;2022-09-04T12:21:03;1.73;;;1.63;;
12145;SDS011;6136;47.032;15.398;2022-09-04T12:23:53;2.03;;;1.92;;
12145;SDS011;6136;47.032;15.398;2022-09-04T12:26:45;1.75;;;1.65;;
12145;SDS011;6136;47.032;15.398;2022-09-04T12:29:46;1.45;;;1.35;;
12145;SDS011;6136;47.032;15.398;2022-09-04T12:32:32;1.80;;;1.70;;
12145;SDS011;6136;47.032;15.398;2022-09-04T12:35:30;1.98;;;1.88;;
12145;SDS011;6136;47.032;15.398;2022-09-04T12:41:24;1.85;;;1.73;;
12145;SDS011;6136;47.032;15.398;2022-09-04T12:44:02;3.75;;;2.05;;
12145;SDS011;6136;47.032;15.398;2022-09-04T12:49:41;5.32;;;2.28;;
12145;SDS011;6136;47.032;15.398;2022-09-04T12:52:28;4.15;;;2.50;;
12145;SDS011;6136;47.032;15.398;2022-09-04T12:55:09;3.13;;;2.25;;
12145;SDS011;6136;47.032;15.398;2022-09-04T12:57:49;2.88;;;2.35;;
12145;SDS011;6136;47.032;15.398;2022-09-04T13:03:09;2.47;;;2.28;;
12145;SDS011;6136;47.032;15.398;2022-09-04T13:05:55;6.68;;;2.22;;
12145;SDS011;6136;47.032;15.398;2022-09-04T13:08:37;2.08;;;1.75;;
12145;SDS011;6136;47.032;15.398;2022-09-04T13:11:20;1.55;;;1.40;;
12145;SDS011;6136;47.032;15.398;2022-09-04T13:14:04;1.20;;;1.20;;
12145;SDS011;6136;47.032;15.398;2022-09-04T13:16:50;2.15;;;1.40;;
12145;SDS011;6136;47.032;15.398;2022-09-04T13:19:29;3.65;;;1.40;;
12145;SDS011;6136;47.032;15.398;2022-09-04T13:22:15;1.45;;;1.35;;
12145;SDS011;6136;47.032;15.398;2022-09-04T13:24:56;1.60;;;1.50;;
12145;SDS011;6136;47.032;15.398;2022-09-04T13:27:38;3.03;;;1.70;;
12145;SDS011;6136;47.032;15.398;2022-09-04T13:30:19;1.70;;;1.60;;
12145;SDS011;6136;47.032;15.398;2022-09-04T13:33:08;1.80;;;1.70;;
12145;SDS011;6136;47.032;15.398;2022-09-04T13:35:50;1.70;;;1.60;;
12145;SDS011;6136;47.032;15.398;2022-09-04T13:38:29;1.90;;;1.80;;
12145;SDS011;6136;47.032;15.398;2022-09-04T13:41:21;7.80;;;1.90;;
12145;SDS011;6136;47.032;15.398;2022-09-04T13:44:07;1.85;;;1.75;;
12145;SDS011;6136;47.032;15.398;2022-09-04T13:46:52;1.80;;;1.70;;
12145;SDS011;6136;47.032;15.398;2022-09-04T13:49:28;2.72;;;2.53;;
12145;SDS011;6136;47.032;15.398;2022-09-04T13:52:04;2.10;;;2.00;;
12145;SDS011;6136;47.032;15.398;2022-09-04T13:54:37;2.35;;;2.15;;
12145;SDS011;6136;47.032;15.398;2022-09-04T13:57:12;2.30;;;2.10;;
12145;SDS011;6136;47.032;15.398;2022-09-04T13:59:43;2.33;;;2.13;;
12145;SDS011;6136;47.032;15.398;2022-09-04T14:02:17;2.40;;;2.10;;
12145;SDS011;6136;47.032;15.398;2022-09-04T14:04:51;2.15;;;1.95;;
12145;SDS011;6136;47.032;15.398;2022-09-04T14:07:23;3.13;;;2.20;;
12145;SDS011;6136;47.032;15.398;2022-09-04T14:09:55;2.50;;;2.30;;
12145;SDS011;6136;47.032;15.398;2022-09-04T14:12:31;3.13;;;2.22;;
12145;SDS011;6136;47.032;15.398;2022-09-04T14:15:24;2.03;;;1.92;;
12145;SDS011;6136;47.032;15.398;2022-09-04T14:18:11;2.40;;;2.20;;
12145;SDS011;6136;47.032;15.398;2022-09-04T14:20:49;2.40;;;2.20;;
12145;SDS011;6136;47.032;15.398;2022-09-04T14:23:29;3.38;;;1.90;;
12145;SDS011;6136;47.032;15.398;2022-09-04T14:26:09;2.25;;;2.05;;
12145;SDS011;6136;47.032;15.398;2022-09-04T14:28:48;2.08;;;1.98;;
12145;SDS011;6136;47.032;15.398;2022-09-04T14:31:24;1.50;;;1.40;;
12145;SDS011;6136;47.032;15.398;2022-09-04T14:34:03;1.63;;;1.52;;
12145;SDS011;6136;47.032;15.398;2022-09-04T14:36:43;1.95;;;1.73;;
12145;SDS011;6136;47.032;15.398;2022-09-04T14:39:25;2.10;;;1.90;;
12145;SDS011;6136;47.032;15.398;2022-09-04T14:42:02;2.70;;;2.13;;
12145;SDS011;6136;47.032;15.398;2022-09-04T14:44:54;3.50;;;2.38;;
12145;SDS011;6136;47.032;15.398;2022-09-04T14:47:36;2.38;;;2.00;;
12145;SDS011;6136;47.032;15.398;2022-09-04T14:50:10;2.20;;;2.00;;
12145;SDS011;6136;47.032;15.398;2022-09-04T14:52:41;2.05;;;1.90;;
12145;SDS011;6136;47.032;15.398;2022-09-04T14:55:13;2.72;;;2.15;;
12145;SDS011;6136;47.032;15.398;2022-09-04T14:57:45;1.98;;;1.88;;
12145;SDS011;6136;47.032;15.398;2022-09-04T15:00:17;1.80;;;1.70;;
12145;SDS011;6136;47.032;15.398;2022-09-04T15:02:49;2.28;;;1.88;;
12145;SDS011;6136;47.032;15.398;2022-09-04T15:05:27;1.70;;;1.60;;
12145;SDS011;6136;47.032;15.398;2022-09-04T15:08:00;2.00;;;1.90;;
12145;SDS011;6136;47.032;15.398;2022-09-04T15:10:35;1.73;;;1.63;;
12145;SDS011;6136;47.032;15.398;2022-09-04T15:13:18;2.10;;;2.00;;
12145;SDS011;6136;47.032;15.398;2022-09-04T15:16:06;2.22;;;2.13;;
12145;SDS011;6136;47.032;15.398;2022-09-04T15:18:49;2.50;;;2.30;;
12145;SDS011;6136;47.032;15.398;2022-09-04T15:21:26;2.40;;;2.20;;
12145;SDS011;6136;47.032;15.398;2022-09-04T15:24:02;2.13;;;1.92;;
12145;SDS011;6136;47.032;15.398;2022-09-04T15:26:40;2.00;;;1.90;;
12145;SDS011;6136;47.032;15.398;2022-09-04T15:29:14;2.15;;;2.00;;
12145;SDS011;6136;47.032;15.398;2022-09-04T15:31:47;2.30;;;2.10;;
12145;SDS011;6136;47.032;15.398;2022-09-04T15:34:26;2.67;;;2.47;;
12145;SDS011;6136;47.032;15.398;2022-09-04T15:37:08;2.90;;;2.53;;
12145;SDS011;6136;47.032;15.398;2022-09-04T15:39:39;2.70;;;2.50;;
12145;SDS011;6136;47.032;15.398;2022-09-04T15:42:29;2.55;;;2.35;;
12145;SDS011;6136;47.032;15.398;2022-09-04T15:45:04;2.85;;;2.30;;
12145;SDS011;6136;47.032;15.398;2022-09-04T15:47:44;2.63;;;2.42;;
12145;SDS011;6136;47.032;15.398;2022-09-04T15:50:25;2.25;;;2.15;;
12145;SDS011;6136;47.032;15.398;2022-09-04T15:52:58;2.70;;;2.50;;
12145;SDS011;6136;47.032;15.398;2022-09-04T15:55:40;2.53;;;2.33;;
12145;SDS011;6136;47.032;15.398;2022-09-04T15:58:14;3.40;;;2.55;;
12145;SDS011;6136;47.032;15.398;2022-09-04T16:01:04;2.80;;;2.60;;
12145;SDS011;6136;47.032;15.398;2022-09-04T16:03:42;3.25;;;2.95;;
12145;SDS011;6136;47.032;15.398;2022-09-04T16:06:20;2.60;;;2.40;;
12145;SDS011;6136;47.032;15.398;2022-09-04T16:08:57;2.92;;;2.60;;
12145;SDS011;6136;47.032;15.398;2022-09-04T16:11:31;2.83;;;2.63;;
12145;SDS011;6136;47.032;15.398;2022-09-04T16:14:03;2.58;;;2.40;;
12145;SDS011;6136;47.032;15.398;2022-09-04T16:16:37;3.30;;;3.00;;
12145;SDS011;6136;47.032;15.398;2022-09-04T16:19:13;3.42;;;3.13;;
12145;SDS011;6136;47.032;15.398;2022-09-04T16:21:50;3.42;;;3.13;;
12145;SDS011;6136;47.032;15.398;2022-09-04T16:24:28;3.70;;;3.40;;
12145;SDS011;6136;47.032;15.398;2022-09-04T16:27:03;3.65;;;3.35;;
12145;SDS011;6136;47.032;15.398;2022-09-04T16:29:35;4.00;;;3.47;;
12145;SDS011;6136;47.032;15.398;2022-09-04T16:32:07;3.58;;;3.28;;
12145;SDS011;6136;47.032;15.398;2022-09-04T16:34:38;3.75;;;3.45;;
12145;SDS011;6136;47.032;15.398;2022-09-04T16:37:13;4.28;;;3.22;;
12145;SDS011;6136;47.032;15.398;2022-09-04T16:39:55;3.83;;;3.53;;
12145;SDS011;6136;47.032;15.398;2022-09-04T16:42:30;3.92;;;3.53;;
12145;SDS011;6136;47.032;15.398;2022-09-04T16:45:07;3.50;;;3.25;;
12145;SDS011;6136;47.032;15.398;2022-09-04T16:47:42;3.72;;;3.42;;
12145;SDS011;6136;47.032;15.398;2022-09-04T16:50:15;4.13;;;3.70;;
12145;SDS011;6136;47.032;15.398;2022-09-04T16:52:53;3.92;;;3.63;;
12145;SDS011;6136;47.032;15.398;2022-09-04T16:55:40;4.05;;;3.75;;
12145;SDS011;6136;47.032;15.398;2022-09-04T16:58:18;3.60;;;3.30;;
12145;SDS011;6136;47.032;15.398;2022-09-04T17:01:02;3.75;;;3.45;;
12145;SDS011;6136;47.032;15.398;2022-09-04T17:03:49;4.50;;;3.70;;
12145;SDS011;6136;47.032;15.398;2022-09-04T17:06:40;4.85;;;3.70;;
12145;SDS011;6136;47.032;15.398;2022-09-04T17:09:15;3.92;;;3.63;;
12145;SDS011;6136;47.032;15.398;2022-09-04T17:11:50;4.40;;;3.97;;
12145;SDS011;6136;47.032;15.398;2022-09-04T17:14:24;7.35;;;4.18;;
12145;SDS011;6136;47.032;15.398;2022-09-04T17:17:03;3.83;;;3.53;;
12145;SDS011;6136;47.032;15.398;2022-09-04T17:19:39;4.13;;;3.83;;
12145;SDS011;6136;47.032;15.398;2022-09-04T17:22:12;4.22;;;3.83;;
12145;SDS011;6136;47.032;15.398;2022-09-04T17:25:22;4.32;;;3.92;;
12145;SDS011;6136;47.032;15.398;2022-09-04T17:28:27;4.57;;;4.13;;
12145;SDS011;6136;47.032;15.398;2022-09-04T17:31:23;3.97;;;3.58;;
12145;SDS011;6136;47.032;15.398;2022-09-04T17:34:00;3.83;;;3.53;;
12145;SDS011;6136;47.032;15.398;2022-09-04T17:37:01;5.45;;;3.85;;
12145;SDS011;6136;47.032;15.398;2022-09-04T17:39:55;4.30;;;3.90;;
12145;SDS011;6136;47.032;15.398;2022-09-04T17:42:51;5.68;;;4.72;;
12145;SDS011;6136;47.032;15.398;2022-09-04T17:45:49;8.18;;;4.32;;
12145;SDS011;6136;47.032;15.398;2022-09-04T17:48:30;5.03;;;4.53;;
12145;SDS011;6136;47.032;15.398;2022-09-04T17:51:00;5.03;;;4.43;;
12145;SDS011;6136;47.032;15.398;2022-09-04T17:53:32;5.13;;;4.55;;
12145;SDS011;6136;47.032;15.398;2022-09-04T17:56:06;5.55;;;5.03;;
12145;SDS011;6136;47.032;15.398;2022-09-04T17:58:41;6.35;;;4.55;;
12145;SDS011;6136;47.032;15.398;2022-09-04T18:01:18;5.10;;;4.43;;
12145;SDS011;6136;47.032;15.398;2022-09-04T18:04:05;5.17;;;4.53;;
12145;SDS011;6136;47.032;15.398;2022-09-04T18:06:50;4.43;;;4.03;;
12145;SDS011;6136;47.032;15.398;2022-09-04T18:09:23;4.40;;;3.90;;
12145;SDS011;6136;47.032;15.398;2022-09-04T18:11:59;4.40;;;4.00;;
12145;SDS011;6136;47.032;15.398;2022-09-04T18:14:38;4.33;;;3.93;;
12145;SDS011;6136;47.032;15.398;2022-09-04T18:17:18;3.63;;;3.33;;
12145;SDS011;6136;47.032;15.398;2022-09-04T18:19:51;3.97;;;3.57;;
12145;SDS011;6136;47.032;15.398;2022-09-04T18:22:26;3.80;;;3.50;;